Time;durP1;ratioP1;P1;durP2;ratioP2;P2;SDS_P1;SDS_P2;PMS_P1;PMS_P2;Temp;Humidity;BMP_temperature;BMP_pressure;BME280_temperature;BME280_humidity;BME280_pressure;Samples;Min_cycle;Max_cycle;Signal;HPM_P1;HPM_P2
2023/09/10 00:01:23;;;;;;;11.10;5.85;;;21.30;73.50;;;;;;5033549;28;20478;-67
2023/09/10 00:03:49;;;;;;;12.48;5.88;;;21.30;73.80;;;;;;5034069;28;20489;-66
2023/09/10 00:06:14;;;;;;;11.75;6.30;;;21.30;73.90;;;;;;5033684;28;20048;-67
2023/09/10 00:08:40;;;;;;;7.63;5.20;;;21.30;73.90;;;;;;5033676;28;20079;-67
2023/09/10 00:11:05;;;;;;;12.13;5.72;;;21.30;74.00;;;;;;5033962;28;20029;-67
2023/09/10 00:13:31;;;;;;;6.60;5.60;;;21.20;73.80;;;;;;5033428;28;20516;-66
2023/09/10 00:15:57;;;;;;;9.90;5.55;;;21.20;73.90;;;;;;5034262;28;20442;-66
2023/09/10 00:18:23;;;;;;;11.40;5.90;;;21.20;74.40;;;;;;5015721;28;20629;-67
2023/09/10 00:20:51;;;;;;;11.18;5.20;;;21.10;74.30;;;;;;5033752;28;20120;-67
2023/09/10 00:23:18;;;;;;;12.93;6.15;;;21.10;74.50;;;;;;5033324;28;20041;-67
2023/09/10 00:25:43;;;;;;;7.90;6.40;;;21.10;75.10;;;;;;5033605;28;20038;-66
2023/09/10 00:28:09;;;;;;;9.13;5.53;;;21.10;75.20;;;;;;5033651;28;20098;-66
2023/09/10 00:30:35;;;;;;;10.50;6.00;;;21.00;75.40;;;;;;5033609;28;20068;-67
2023/09/10 00:33:01;;;;;;;7.53;5.88;;;20.90;75.30;;;;;;5033475;28;20502;-67
2023/09/10 00:35:28;;;;;;;7.78;6.10;;;21.00;75.50;;;;;;5015437;28;20107;-67
2023/09/10 00:37:53;;;;;;;10.15;6.45;;;20.90;75.50;;;;;;5033188;28;20026;-66
2023/09/10 00:40:19;;;;;;;9.52;5.72;;;20.90;75.90;;;;;;5032838;28;20040;-67
2023/09/10 00:42:44;;;;;;;7.78;5.95;;;20.90;76.00;;;;;;5033063;28;20065;-66
2023/09/10 00:45:12;;;;;;;6.38;5.60;;;20.90;76.60;;;;;;5033376;28;20410;-66
2023/09/10 00:47:47;;;;;;;8.98;5.95;;;20.90;76.30;;;;;;5033137;28;20500;-66
2023/09/10 00:50:17;;;;;;;11.18;6.60;;;20.80;76.80;;;;;;5032976;28;20060;-67
2023/09/10 00:52:49;;;;;;;9.45;6.82;;;20.80;76.50;;;;;;5033467;28;20048;-66
2023/09/10 00:55:15;;;;;;;10.20;6.00;;;20.80;76.40;;;;;;5032263;28;20382;-66
2023/09/10 00:57:41;;;;;;;9.32;5.95;;;20.70;76.80;;;;;;5033244;28;20069;-66
2023/09/10 01:00:08;;;;;;;12.77;7.28;;;20.80;76.90;;;;;;5033249;28;20081;-66
2023/09/10 01:02:34;;;;;;;11.20;6.30;;;20.70;76.90;;;;;;5032604;28;20103;-66
2023/09/10 01:05:00;;;;;;;8.48;6.10;;;20.70;77.20;;;;;;5032783;28;20485;-66
2023/09/10 01:07:26;;;;;;;12.65;6.85;;;20.60;77.70;;;;;;5032418;28;20573;-66
2023/09/10 01:09:52;;;;;;;9.30;7.03;;;20.60;78.10;;;;;;5033030;28;20065;-66
2023/09/10 01:12:32;;;;;;;10.13;7.35;;;20.50;78.30;;;;;;5032511;28;20100;-66
2023/09/10 01:15:04;;;;;;;10.90;7.18;;;20.50;78.60;;;;;;5033049;28;20033;-66
2023/09/10 01:17:45;;;;;;;11.05;6.63;;;20.50;78.80;;;;;;5032564;28;20447;-66
2023/09/10 01:20:38;;;;;;;9.50;7.07;;;20.50;79.50;;;;;;5032952;28;20057;-66
2023/09/10 01:23:11;;;;;;;9.50;6.78;;;20.40;80.10;;;;;;5032639;28;20101;-66
2023/09/10 01:25:37;;;;;;;12.07;7.57;;;20.40;80.50;;;;;;5032482;28;20026;-67
2023/09/10 01:28:03;;;;;;;11.25;7.47;;;20.40;80.20;;;;;;5032790;28;20038;-66
2023/09/10 01:30:32;;;;;;;12.70;7.47;;;20.40;80.60;;;;;;5034835;28;20052;-66
2023/09/10 01:33:24;;;;;;;10.18;7.38;;;20.40;80.80;;;;;;5032728;28;20348;-66
2023/09/10 01:36:01;;;;;;;10.30;6.90;;;20.40;81.00;;;;;;4994931;28;20116;-65
2023/09/10 01:38:35;;;;;;;12.55;6.93;;;20.30;81.40;;;;;;5032323;28;20113;-67
2023/09/10 01:41:08;;;;;;;14.48;7.70;;;20.30;81.20;;;;;;4999652;28;20057;-67
2023/09/10 01:43:34;;;;;;;10.80;6.95;;;20.30;81.70;;;;;;5032404;28;20084;-67
2023/09/10 01:46:02;;;;;;;11.73;7.10;;;20.20;82.10;;;;;;5036806;28;20025;-67
2023/09/10 01:48:29;;;;;;;9.45;6.78;;;20.20;82.20;;;;;;5036482;28;20084;-67
2023/09/10 01:50:55;;;;;;;11.27;7.75;;;20.20;82.70;;;;;;5036637;28;20063;-67
2023/09/10 01:53:20;;;;;;;13.88;8.48;;;20.20;82.90;;;;;;5036166;28;20439;-67
2023/09/10 01:55:46;;;;;;;14.48;7.82;;;20.10;83.30;;;;;;5036291;28;20053;-67
2023/09/10 01:58:13;;;;;;;13.57;7.60;;;20.10;83.60;;;;;;5018942;28;20033;-67
2023/09/10 02:00:39;;;;;;;16.08;7.93;;;20.10;83.90;;;;;;5035925;28;20029;-67
2023/09/10 02:03:05;;;;;;;12.40;7.30;;;20.10;84.30;;;;;;5036296;28;20458;-67
2023/09/10 02:05:30;;;;;;;9.80;7.50;;;20.00;84.40;;;;;;5035634;28;20097;-67
2023/09/10 02:07:56;;;;;;;13.40;7.40;;;20.00;84.50;;;;;;5036207;28;20041;-67
2023/09/10 02:10:22;;;;;;;13.50;7.88;;;20.00;84.60;;;;;;5036086;28;20029;-67
2023/09/10 02:12:48;;;;;;;13.63;7.50;;;20.00;85.00;;;;;;5036250;28;20025;-67
2023/09/10 02:15:14;;;;;;;10.85;7.47;;;20.00;84.70;;;;;;5036053;28;20109;-67
2023/09/10 02:17:39;;;;;;;11.68;8.25;;;19.90;85.30;;;;;;5035371;28;20056;-66
2023/09/10 02:20:09;;;;;;;13.65;7.55;;;19.90;85.60;;;;;;5036053;28;20017;-66
2023/09/10 02:22:36;;;;;;;15.13;7.65;;;19.90;85.70;;;;;;5035968;28;20026;-66
2023/09/10 02:25:03;;;;;;;12.45;7.80;;;19.80;85.30;;;;;;5036411;28;20091;-66
2023/09/10 02:27:30;;;;;;;11.93;7.15;;;19.80;85.70;;;;;;5035548;28;20033;-66
2023/09/10 02:29:56;;;;;;;9.80;7.05;;;19.70;86.30;;;;;;5051423;28;20082;-66
2023/09/10 02:32:22;;;;;;;11.40;7.50;;;19.70;86.90;;;;;;5055313;28;20025;-64
2023/09/10 02:34:48;;;;;;;12.77;7.38;;;19.60;87.10;;;;;;5055839;28;20021;-66
2023/09/10 02:37:14;;;;;;;12.65;7.70;;;19.60;87.10;;;;;;5055872;28;20109;-66
2023/09/10 02:39:40;;;;;;;10.38;8.10;;;19.60;87.70;;;;;;5055253;28;20051;-66
2023/09/10 02:42:05;;;;;;;16.40;8.25;;;19.60;87.90;;;;;;5055312;28;20029;-66
2023/09/10 02:44:31;;;;;;;11.35;7.75;;;19.50;88.30;;;;;;5055247;28;20075;-66
2023/09/10 02:46:57;;;;;;;12.57;8.38;;;19.50;88.60;;;;;;5055432;28;20104;-66
2023/09/10 02:49:24;;;;;;;13.43;9.00;;;19.50;89.30;;;;;;5055544;28;20366;-67
2023/09/10 02:51:50;;;;;;;12.57;7.88;;;19.40;89.20;;;;;;5055626;28;20116;-65
2023/09/10 02:54:16;;;;;;;16.45;8.63;;;19.40;89.70;;;;;;5055186;28;20056;-66
2023/09/10 02:56:42;;;;;;;14.60;8.02;;;19.30;90.00;;;;;;5048183;28;20056;-65
2023/09/10 02:59:07;;;;;;;14.80;8.77;;;19.30;90.10;;;;;;5035338;28;20029;-65
2023/09/10 03:01:33;;;;;;;11.88;7.97;;;19.30;90.10;;;;;;5017196;28;20025;-65
2023/09/10 03:03:59;;;;;;;13.00;7.53;;;19.30;90.30;;;;;;5035333;28;20052;-65
2023/09/10 03:06:24;;;;;;;10.35;8.05;;;19.30;90.40;;;;;;5034808;28;20035;-67
2023/09/10 03:08:50;;;;;;;15.13;8.00;;;19.30;90.50;;;;;;5035163;28;20037;-67
2023/09/10 03:11:15;;;;;;;12.27;7.75;;;19.30;90.40;;;;;;5035145;28;20126;-67
2023/09/10 03:13:41;;;;;;;15.48;7.85;;;19.20;90.70;;;;;;5034593;28;20033;-67
2023/09/10 03:16:07;;;;;;;11.27;7.53;;;19.20;90.80;;;;;;5034996;28;20028;-67
2023/09/10 03:18:33;;;;;;;19.17;8.48;;;19.20;90.60;;;;;;5034603;28;20385;-67
2023/09/10 03:21:02;;;;;;;15.57;7.88;;;19.20;90.50;;;;;;5034789;28;20026;-67
2023/09/10 03:23:27;;;;;;;12.95;7.97;;;19.10;90.70;;;;;;5034472;28;20083;-67
2023/09/10 03:25:53;;;;;;;18.48;7.82;;;19.20;90.80;;;;;;5034724;28;20021;-67
2023/09/10 03:28:18;;;;;;;12.88;7.80;;;19.10;90.70;;;;;;5034472;28;20509;-67
2023/09/10 03:30:44;;;;;;;9.60;8.25;;;19.10;90.80;;;;;;5034326;28;20108;-67
2023/09/10 03:33:09;;;;;;;11.73;7.20;;;19.10;90.80;;;;;;5034631;28;20029;-67
2023/09/10 03:35:35;;;;;;;12.70;8.65;;;19.10;90.90;;;;;;5036679;28;20418;-66
2023/09/10 03:38:01;;;;;;;11.85;7.90;;;19.10;90.90;;;;;;5034619;28;20041;-66
2023/09/10 03:40:26;;;;;;;11.32;8.18;;;19.00;90.90;;;;;;5034589;28;20379;-66
2023/09/10 03:42:52;;;;;;;21.13;9.43;;;19.00;90.90;;;;;;5034586;28;20044;-67
2023/09/10 03:45:17;;;;;;;25.38;9.73;;;19.00;91.00;;;;;;5036726;28;20029;-67
2023/09/10 03:47:43;;;;;;;11.50;7.88;;;19.00;91.10;;;;;;5033956;28;20454;-67
2023/09/10 03:50:11;;;;;;;13.88;8.18;;;19.00;91.30;;;;;;5034253;28;20497;-67
2023/09/10 03:52:36;;;;;;;14.38;8.32;;;18.90;91.30;;;;;;5033634;28;20496;-67
2023/09/10 03:55:02;;;;;;;13.05;7.68;;;19.00;91.10;;;;;;5033968;28;20026;-66
2023/09/10 03:57:28;;;;;;;10.30;7.90;;;18.90;91.30;;;;;;5034341;28;20431;-67
2023/09/10 03:59:53;;;;;;;13.70;8.23;;;18.90;91.20;;;;;;5034241;28;20027;-67
2023/09/10 04:02:19;;;;;;;13.88;8.68;;;19.00;91.20;;;;;;5033742;28;20028;-68
2023/09/10 04:04:46;;;;;;;14.25;8.73;;;19.00;91.40;;;;;;5040830;28;20045;-67
2023/09/10 04:07:12;;;;;;;11.55;8.57;;;19.00;91.00;;;;;;5037003;28;20035;-67
2023/09/10 04:09:38;;;;;;;14.40;8.80;;;18.90;91.20;;;;;;5046246;28;20112;-67
2023/09/10 04:12:03;;;;;;;11.65;9.13;;;18.90;91.20;;;;;;5044669;28;20458;-66
2023/09/10 04:14:30;;;;;;;14.13;8.77;;;18.90;91.10;;;;;;5033671;28;20052;-67
2023/09/10 04:16:56;;;;;;;10.10;8.15;;;18.90;91.20;;;;;;5033947;28;20055;-65
2023/09/10 04:19:22;;;;;;;12.77;9.52;;;18.90;91.00;;;;;;5016045;28;20033;-65
2023/09/10 04:21:48;;;;;;;12.38;9.18;;;18.80;91.30;;;;;;5033384;28;20061;-66
2023/09/10 04:24:14;;;;;;;16.50;8.95;;;18.80;91.60;;;;;;5033632;28;20060;-66
2023/09/10 04:26:40;;;;;;;12.82;9.63;;;18.70;91.80;;;;;;5034414;28;20032;-66
2023/09/10 04:29:05;;;;;;;11.02;8.60;;;18.80;91.80;;;;;;5033515;28;20034;-67
2023/09/10 04:31:39;;;;;;;11.05;9.10;;;18.80;91.70;;;;;;5033558;28;20106;-65
2023/09/10 04:34:04;;;;;;;12.85;9.15;;;18.80;91.50;;;;;;5033827;28;20017;-65
2023/09/10 04:36:30;;;;;;;13.55;9.05;;;18.80;91.50;;;;;;5034533;28;20029;-65
2023/09/10 04:38:55;;;;;;;12.40;8.70;;;18.80;91.60;;;;;;5033487;28;20037;-67
2023/09/10 04:41:21;;;;;;;14.38;8.88;;;18.80;91.50;;;;;;5033426;28;20036;-67
2023/09/10 04:43:47;;;;;;;14.38;9.65;;;18.80;91.50;;;;;;5032987;28;20355;-67
2023/09/10 04:46:12;;;;;;;12.95;9.45;;;18.70;91.50;;;;;;5033375;28;20026;-67
2023/09/10 04:48:38;;;;;;;11.23;8.77;;;18.70;91.70;;;;;;5032606;28;20026;-67
2023/09/10 04:51:03;;;;;;;14.85;9.40;;;18.70;91.80;;;;;;5033117;28;20439;-67
2023/09/10 04:53:30;;;;;;;12.02;9.25;;;18.70;92.00;;;;;;5033410;28;20053;-66
2023/09/10 04:55:56;;;;;;;14.27;9.20;;;18.70;92.00;;;;;;5023814;28;20045;-67
2023/09/10 04:58:21;;;;;;;15.15;9.10;;;18.70;91.90;;;;;;5052701;28;20083;-67
2023/09/10 05:00:50;;;;;;;16.65;8.43;;;18.70;92.00;;;;;;5052367;28;20020;-66
2023/09/10 05:03:15;;;;;;;11.85;9.32;;;18.70;91.90;;;;;;5052938;28;20426;-66
2023/09/10 05:05:41;;;;;;;15.45;9.10;;;18.70;91.90;;;;;;5052624;28;20113;-67
2023/09/10 05:08:07;;;;;;;10.63;8.75;;;18.80;91.90;;;;;;5052700;28;20087;-67
2023/09/10 05:10:32;;;;;;;16.10;8.95;;;18.80;92.00;;;;;;5053039;28;20457;-66
2023/09/10 05:12:58;;;;;;;10.23;8.02;;;18.80;91.90;;;;;;5052752;28;20038;-66
2023/09/10 05:15:23;;;;;;;11.45;8.45;;;18.80;91.80;;;;;;5053071;28;20414;-66
2023/09/10 05:17:49;;;;;;;13.20;8.00;;;18.90;91.70;;;;;;5052392;28;20033;-65
2023/09/10 05:20:15;;;;;;;14.60;8.18;;;18.90;91.90;;;;;;5052093;28;20067;-66
2023/09/10 05:22:40;;;;;;;12.90;8.82;;;18.90;91.80;;;;;;5052070;28;20063;-66
2023/09/10 05:25:06;;;;;;;16.33;8.55;;;18.90;91.80;;;;;;5052827;28;20029;-66
2023/09/10 05:27:32;;;;;;;12.63;8.77;;;18.90;91.80;;;;;;5052594;28;20085;-66
2023/09/10 05:29:58;;;;;;;14.45;8.82;;;19.00;91.70;;;;;;5052505;28;20025;-66
2023/09/10 05:32:24;;;;;;;11.65;8.48;;;19.00;91.50;;;;;;5052516;28;20032;-66
2023/09/10 05:34:49;;;;;;;14.10;8.65;;;19.00;91.50;;;;;;5052366;28;20453;-66
2023/09/10 05:37:15;;;;;;;10.65;8.18;;;19.00;91.40;;;;;;5052622;28;20537;-66
2023/09/10 05:39:40;;;;;;;10.98;9.18;;;19.10;91.30;;;;;;5052219;28;20025;-66
2023/09/10 05:42:06;;;;;;;10.55;8.50;;;19.10;91.10;;;;;;5055136;28;20027;-66
2023/09/10 05:44:32;;;;;;;12.20;8.82;;;19.10;91.10;;;;;;5052271;28;20378;-66
2023/09/10 05:46:58;;;;;;;14.57;9.02;;;19.10;91.00;;;;;;5052204;28;20052;-66
2023/09/10 05:49:24;;;;;;;12.82;9.32;;;19.10;91.10;;;;;;5054482;28;20043;-66
2023/09/10 05:51:49;;;;;;;11.98;8.82;;;19.20;91.00;;;;;;5052384;28;20096;-66
2023/09/10 05:54:15;;;;;;;12.40;9.23;;;19.20;91.20;;;;;;5052516;28;20358;-67
2023/09/10 05:56:40;;;;;;;11.80;8.95;;;19.20;91.20;;;;;;5039874;28;20057;-67
2023/09/10 05:59:06;;;;;;;16.13;9.10;;;19.20;91.60;;;;;;5032544;28;20038;-66
2023/09/10 06:01:32;;;;;;;13.55;9.10;;;19.30;91.20;;;;;;5032357;28;20017;-67
2023/09/10 06:03:59;;;;;;;16.65;9.27;;;19.40;91.40;;;;;;5032023;28;20374;-67
2023/09/10 06:06:24;;;;;;;13.52;8.95;;;19.40;91.10;;;;;;5032301;28;20033;-66
2023/09/10 06:08:50;;;;;;;12.45;8.50;;;19.50;90.80;;;;;;5031949;28;20045;-66
2023/09/10 06:11:16;;;;;;;11.18;8.60;;;19.50;90.90;;;;;;5032356;28;20025;-66
2023/09/10 06:13:41;;;;;;;12.35;8.98;;;19.60;90.80;;;;;;5032273;28;20072;-67
2023/09/10 06:16:07;;;;;;;12.57;8.30;;;19.60;90.50;;;;;;5032113;28;20389;-66
2023/09/10 06:18:32;;;;;;;12.30;8.38;;;19.70;90.30;;;;;;5031980;28;20029;-66
2023/09/10 06:20:58;;;;;;;10.38;8.35;;;19.80;90.40;;;;;;5031647;28;20064;-66
2023/09/10 06:23:24;;;;;;;14.48;9.05;;;19.90;90.20;;;;;;5036289;28;20025;-66
2023/09/10 06:25:50;;;;;;;12.10;8.27;;;20.00;89.80;;;;;;5051730;28;20029;-66
2023/09/10 06:28:16;;;;;;;10.73;8.00;;;20.00;89.50;;;;;;5052428;28;20029;-66
2023/09/10 06:30:41;;;;;;;9.82;8.05;;;20.10;89.60;;;;;;5053788;28;20095;-65
2023/09/10 06:33:08;;;;;;;10.60;8.63;;;20.20;89.90;;;;;;5055536;28;20421;-67
2023/09/10 06:35:34;;;;;;;11.30;7.85;;;20.40;89.00;;;;;;5055414;28;20033;-67
2023/09/10 06:37:59;;;;;;;13.18;8.85;;;20.50;88.50;;;;;;5055250;28;20032;-67
2023/09/10 06:40:25;;;;;;;11.65;8.07;;;20.60;87.80;;;;;;5037662;28;20158;-66
2023/09/10 06:42:51;;;;;;;10.77;8.45;;;21.00;86.50;;;;;;5054605;28;20029;-66
2023/09/10 06:45:16;;;;;;;13.57;7.82;;;21.20;84.60;;;;;;5055066;28;20477;-67
2023/09/10 06:47:42;;;;;;;9.35;7.82;;;21.60;83.60;;;;;;5055437;28;20037;-67
2023/09/10 06:50:08;;;;;;;12.10;8.43;;;21.80;82.60;;;;;;5037738;28;20048;-67
2023/09/10 06:52:33;;;;;;;12.15;7.78;;;22.20;79.90;;;;;;5055311;28;20501;-67
2023/09/10 06:55:00;;;;;;;11.68;7.68;;;22.50;78.80;;;;;;5054786;28;20033;-68
2023/09/10 06:57:27;;;;;;;11.93;7.78;;;22.80;76.60;;;;;;5049799;28;20064;-69
2023/09/10 06:59:52;;;;;;;9.85;8.02;;;23.30;75.00;;;;;;5036548;28;20048;-68
2023/09/10 07:02:18;;;;;;;15.23;8.30;;;23.70;72.60;;;;;;5035078;28;20026;-67
2023/09/10 07:04:47;;;;;;;13.80;7.03;;;24.40;70.30;;;;;;5053430;28;20032;-68
2023/09/10 07:07:14;;;;;;;10.98;6.75;;;25.30;67.40;;;;;;5041009;28;20488;-68
2023/09/10 07:09:39;;;;;;;8.68;7.28;;;26.30;65.30;;;;;;5034639;28;20025;-67
2023/09/10 07:12:06;;;;;;;12.38;6.88;;;27.10;62.20;;;;;;5035372;28;20424;-69
2023/09/10 07:14:32;;;;;;;7.50;6.25;;;28.20;59.10;;;;;;5034337;28;20032;-69
2023/09/10 07:16:58;;;;;;;8.80;6.43;;;28.90;56.80;;;;;;5033825;28;20021;-72
2023/09/10 07:19:23;;;;;;;8.70;6.22;;;29.70;54.60;;;;;;5034534;28;20033;-68
2023/09/10 07:21:49;;;;;;;8.40;5.90;;;30.20;53.50;;;;;;5034293;28;20038;-67
2023/09/10 07:24:15;;;;;;;7.65;6.25;;;30.50;51.20;;;;;;5033989;28;20025;-67
2023/09/10 07:26:40;;;;;;;8.52;5.78;;;30.90;50.90;;;;;;5034350;28;20084;-67
2023/09/10 07:29:07;;;;;;;8.88;6.20;;;31.60;49.00;;;;;;5034043;28;20041;-68
2023/09/10 07:31:33;;;;;;;11.70;6.40;;;32.10;47.20;;;;;;5034272;28;20409;-65
2023/09/10 07:34:00;;;;;;;7.53;6.20;;;32.70;47.10;;;;;;5041495;28;20033;-66
2023/09/10 07:36:25;;;;;;;9.43;6.03;;;33.00;45.40;;;;;;5034022;28;20030;-66
2023/09/10 07:38:52;;;;;;;6.72;5.82;;;33.40;45.20;;;;;;5033577;28;20389;-68
2023/09/10 07:41:17;;;;;;;7.85;5.75;;;33.90;43.90;;;;;;5044670;28;20036;-70
2023/09/10 07:43:43;;;;;;;8.02;6.10;;;34.30;43.20;;;;;;5035783;28;20029;-70
2023/09/10 07:46:09;;;;;;;9.85;5.82;;;34.80;42.40;;;;;;5053101;28;20461;-68
2023/09/10 07:48:35;;;;;;;9.75;5.45;;;35.00;41.70;;;;;;5053687;28;20029;-68
2023/09/10 07:51:00;;;;;;;9.25;5.22;;;35.60;40.90;;;;;;5053424;28;20074;-69
2023/09/10 07:53:26;;;;;;;9.50;5.80;;;35.90;39.90;;;;;;5053664;28;20021;-68
2023/09/10 07:55:52;;;;;;;9.27;5.45;;;36.20;39.30;;;;;;5052970;28;20129;-69
2023/09/10 07:58:18;;;;;;;8.77;5.50;;;36.30;39.10;;;;;;5053640;28;20415;-67
2023/09/10 08:00:43;;;;;;;7.88;5.20;;;36.40;38.90;;;;;;5053492;28;20068;-68
2023/09/10 08:03:09;;;;;;;11.35;5.85;;;36.60;38.20;;;;;;5035303;28;20381;-69
2023/09/10 08:05:35;;;;;;;7.18;5.53;;;36.90;37.90;;;;;;5053399;28;20054;-71
2023/09/10 08:08:04;;;;;;;9.25;5.93;;;37.40;37.20;;;;;;5052900;28;20044;-74
2023/09/10 08:10:30;;;;;;;12.93;6.03;;;37.70;37.10;;;;;;5053404;28;20108;-73
2023/09/10 08:12:56;;;;;;;9.02;6.03;;;38.20;37.00;;;;;;5052853;28;20134;-75
2023/09/10 08:15:21;;;;;;;8.50;5.78;;;38.10;36.20;;;;;;5052983;28;20040;-73
2023/09/10 08:17:53;;;;;;;9.85;5.38;;;38.60;36.70;;;;;;5035378;28;20025;-74
2023/09/10 08:20:18;;;;;;;7.13;5.78;;;38.30;36.00;;;;;;5053502;28;20462;-75
2023/09/10 08:22:44;;;;;;;9.73;5.68;;;38.00;35.70;;;;;;5052785;28;20031;-79
2023/09/10 08:25:10;;;;;;;6.70;5.35;;;37.50;36.30;;;;;;5052561;28;20048;-75
2023/09/10 08:27:35;;;;;;;9.27;6.63;;;37.10;36.70;;;;;;5052496;28;20033;-76
2023/09/10 08:30:05;;;;;;;9.20;6.03;;;36.50;36.70;;;;;;5026945;28;20072;-77
2023/09/10 08:32:30;;;;;;;11.98;6.13;;;36.60;37.30;;;;;;5016394;28;20025;-78
2023/09/10 08:34:56;;;;;;;14.02;7.32;;;36.30;37.60;;;;;;5033260;28;20497;-78
2023/09/10 08:37:21;;;;;;;10.70;7.07;;;35.90;38.10;;;;;;5032784;28;20075;-77
2023/09/10 08:39:48;;;;;;;8.40;6.18;;;34.90;39.00;;;;;;5033015;28;20427;-71
2023/09/10 08:42:44;;;;;;;10.73;6.95;;;34.00;40.40;;;;;;5032501;28;20025;-74
2023/09/10 08:45:11;;;;;;;7.25;6.30;;;33.30;42.20;;;;;;5032150;28;20386;-73
2023/09/10 08:47:41;;;;;;;9.38;6.18;;;32.80;42.80;;;;;;5032681;28;20048;-74
2023/09/10 08:50:12;;;;;;;8.77;5.95;;;32.20;43.50;;;;;;5032636;28;20041;-71
2023/09/10 08:52:39;;;;;;;8.55;7.03;;;31.80;44.30;;;;;;5033048;28;20418;-67
2023/09/10 08:55:06;;;;;;;10.45;6.20;;;31.30;44.80;;;;;;5031387;28;20548;-69
2023/09/10 08:57:33;;;;;;;10.75;6.80;;;31.00;46.10;;;;;;5033009;28;20099;-69
2023/09/10 09:00:00;;;;;;;11.80;7.45;;;30.80;46.10;;;;;;5032588;28;20029;-69
2023/09/10 09:02:26;;;;;;;12.18;7.65;;;30.60;46.50;;;;;;5032953;28;20074;-69
2023/09/10 09:04:52;;;;;;;11.63;6.90;;;30.30;47.10;;;;;;5032910;28;20104;-69
2023/09/10 09:07:21;;;;;;;11.50;6.75;;;30.20;47.70;;;;;;5032343;28;20025;-69
2023/09/10 09:09:53;;;;;;;9.60;7.13;;;30.10;48.00;;;;;;5032819;28;20319;-68
2023/09/10 09:12:20;;;;;;;11.07;6.13;;;30.30;48.20;;;;;;5032450;28;20022;-68
2023/09/10 09:14:48;;;;;;;7.45;6.28;;;30.20;48.00;;;;;;5032803;28;20025;-68
2023/09/10 09:17:15;;;;;;;8.20;6.63;;;30.20;48.00;;;;;;5015158;28;20041;-68
2023/09/10 09:19:44;;;;;;;10.05;6.03;;;30.00;47.50;;;;;;5033274;28;20423;-68
2023/09/10 09:22:14;;;;;;;11.32;5.70;;;30.00;47.60;;;;;;5032334;28;20033;-68
2023/09/10 09:24:40;;;;;;;9.73;7.35;;;30.00;48.30;;;;;;5032713;28;20517;-69
2023/09/10 09:27:08;;;;;;;9.52;6.43;;;30.20;47.30;;;;;;5031921;28;20116;-69
2023/09/10 09:29:33;;;;;;;9.40;6.10;;;29.90;48.30;;;;;;5032339;28;20046;-69
2023/09/10 09:31:59;;;;;;;15.02;6.50;;;30.00;48.80;;;;;;5032220;28;20029;-69
2023/09/10 09:34:25;;;;;;;9.23;6.25;;;30.00;48.20;;;;;;5032389;28;20324;-69
2023/09/10 09:36:51;;;;;;;7.35;5.78;;;30.10;47.90;;;;;;5032614;28;20093;-69
2023/09/10 09:39:18;;;;;;;11.23;5.85;;;30.20;48.40;;;;;;5034269;28;20060;-68
2023/09/10 09:41:51;;;;;;;9.38;6.32;;;30.40;48.50;;;;;;5033026;28;20104;-68
2023/09/10 09:44:17;;;;;;;8.07;5.60;;;30.20;47.20;;;;;;5032075;28;20034;-69
2023/09/10 09:46:45;;;;;;;9.65;5.90;;;30.20;47.40;;;;;;5032365;28;20028;-68
2023/09/10 09:49:10;;;;;;;8.05;6.00;;;30.10;47.60;;;;;;5031817;28;20034;-68
2023/09/10 09:51:39;;;;;;;7.78;6.45;;;30.00;47.50;;;;;;5034731;28;20025;-68
2023/09/10 09:54:07;;;;;;;11.77;6.15;;;29.80;47.40;;;;;;5032018;28;20141;-69
2023/09/10 09:56:32;;;;;;;8.25;5.68;;;29.70;48.10;;;;;;5032311;28;20050;-69
2023/09/10 09:58:59;;;;;;;7.18;5.80;;;29.70;48.10;;;;;;5032510;28;20053;-69
2023/09/10 10:01:25;;;;;;;6.07;5.43;;;29.70;48.20;;;;;;5031964;28;20025;-69
2023/09/10 10:03:52;;;;;;;9.80;5.40;;;29.70;48.30;;;;;;5032383;28;20037;-69
2023/09/10 10:06:19;;;;;;;11.68;5.85;;;29.80;48.40;;;;;;5034728;28;20060;-69
2023/09/10 10:08:49;;;;;;;8.48;5.60;;;29.80;47.80;;;;;;5036247;28;20037;-69
2023/09/10 10:11:32;;;;;;;8.65;5.07;;;30.00;49.00;;;;;;5035661;28;20021;-69
2023/09/10 10:13:59;;;;;;;6.00;4.97;;;30.20;48.10;;;;;;5036148;28;20086;-68
2023/09/10 10:16:29;;;;;;;11.70;6.28;;;30.40;47.20;;;;;;5035751;28;20100;-69
2023/09/10 10:18:55;;;;;;;8.23;5.17;;;30.20;46.80;;;;;;5036047;28;20022;-69
2023/09/10 10:21:24;;;;;;;9.25;4.90;;;30.30;47.50;;;;;;5035633;28;20245;-69
2023/09/10 10:23:52;;;;;;;9.70;5.43;;;30.50;47.50;;;;;;5035739;28;20049;-69
2023/09/10 10:26:18;;;;;;;9.70;5.50;;;30.70;47.50;;;;;;5035502;28;20075;-69
2023/09/10 10:28:46;;;;;;;6.10;5.15;;;30.70;46.30;;;;;;5035731;28;20079;-69
2023/09/10 10:31:15;;;;;;;7.30;5.15;;;30.80;45.90;;;;;;5035321;28;20037;-68
2023/09/10 10:34:03;;;;;;;8.70;5.22;;;30.80;46.40;;;;;;5035470;28;20426;-69
2023/09/10 10:37:06;;;;;;;6.55;4.95;;;31.00;46.10;;;;;;5035757;28;20030;-69
2023/09/10 10:40:05;;;;;;;6.22;5.30;;;30.90;46.20;;;;;;5041046;28;20090;-69
2023/09/10 10:42:37;;;;;;;8.00;5.68;;;31.20;46.10;;;;;;5055626;28;20036;-70
2023/09/10 10:45:09;;;;;;;7.30;5.00;;;31.10;45.20;;;;;;5055084;28;20037;-71
2023/09/10 10:47:40;;;;;;;7.38;5.22;;;31.30;45.90;;;;;;5055429;28;20094;-70
2023/09/10 10:50:09;;;;;;;6.43;5.10;;;31.40;45.50;;;;;;5055100;28;20171;-70
2023/09/10 10:52:42;;;;;;;7.63;5.07;;;31.50;45.70;;;;;;5055329;28;20025;-70
2023/09/10 10:55:09;;;;;;;5.47;4.75;;;31.70;45.20;;;;;;5054674;28;20036;-70
2023/09/10 10:57:36;;;;;;;7.32;5.10;;;31.80;44.90;;;;;;5054871;28;20052;-70
2023/09/10 11:00:03;;;;;;;6.75;5.22;;;31.90;44.50;;;;;;5037720;28;20033;-70
2023/09/10 11:02:29;;;;;;;6.85;4.65;;;32.00;44.50;;;;;;5055138;28;20100;-70
2023/09/10 11:04:56;;;;;;;7.80;4.97;;;32.00;43.60;;;;;;5055158;28;20064;-70
2023/09/10 11:07:22;;;;;;;7.05;5.43;;;31.80;44.00;;;;;;5054363;28;20100;-70
2023/09/10 11:09:48;;;;;;;7.25;5.07;;;31.70;44.40;;;;;;5054960;28;20056;-68
2023/09/10 11:12:14;;;;;;;7.30;5.18;;;31.90;44.50;;;;;;5054602;28;20028;-68
2023/09/10 11:14:58;;;;;;;10.43;5.47;;;32.00;44.40;;;;;;5054917;28;20021;-68
2023/09/10 11:17:29;;;;;;;5.72;5.03;;;32.10;44.10;;;;;;5053378;28;20036;-68
2023/09/10 11:19:55;;;;;;;6.05;5.45;;;32.30;43.60;;;;;;5054996;28;20029;-69
2023/09/10 11:22:21;;;;;;;8.13;5.00;;;32.40;42.90;;;;;;5054295;28;20100;-69
2023/09/10 11:25:05;;;;;;;11.73;5.88;;;32.40;42.90;;;;;;5054855;28;20028;-69
2023/09/10 11:27:33;;;;;;;7.13;5.68;;;32.40;43.20;;;;;;5054752;28;20033;-69
2023/09/10 11:30:16;;;;;;;11.95;5.55;;;32.50;43.20;;;;;;5054629;28;20025;-69
2023/09/10 11:32:42;;;;;;;5.22;4.60;;;32.60;42.70;;;;;;5054678;28;20044;-69
2023/09/10 11:35:17;;;;;;;6.60;4.78;;;32.60;42.80;;;;;;5050697;28;20082;-70
2023/09/10 11:37:46;;;;;;;7.28;5.70;;;32.70;42.40;;;;;;5054144;28;20096;-69
2023/09/10 11:40:17;;;;;;;7.70;5.33;;;32.80;41.90;;;;;;5053981;28;20052;-69
2023/09/10 11:42:47;;;;;;;8.38;5.22;;;32.70;42.10;;;;;;5053852;28;20760;-69
2023/09/10 11:45:14;;;;;;;10.52;5.28;;;32.80;41.70;;;;;;5032887;28;20029;-70
2023/09/10 11:47:43;;;;;;;8.40;4.95;;;32.70;42.00;;;;;;5054088;28;20040;-69
2023/09/10 11:50:10;;;;;;;6.80;4.97;;;32.80;42.20;;;;;;5053659;28;20029;-70
2023/09/10 11:52:37;;;;;;;7.63;5.10;;;32.80;41.40;;;;;;5053855;28;20029;-69
2023/09/10 11:55:09;;;;;;;9.98;5.30;;;32.40;41.40;;;;;;5054050;28;20060;-68
2023/09/10 11:57:35;;;;;;;5.57;4.82;;;32.30;41.40;;;;;;5054359;28;20128;-68
2023/09/10 12:00:01;;;;;;;8.05;5.18;;;32.20;42.20;;;;;;5054036;28;20348;-69
2023/09/10 12:02:26;;;;;;;10.38;5.70;;;32.20;42.60;;;;;;5053563;28;20032;-68
2023/09/10 12:04:52;;;;;;;9.25;5.30;;;32.30;42.50;;;;;;5053693;28;20025;-69
2023/09/10 12:07:19;;;;;;;10.88;5.25;;;32.40;42.00;;;;;;5053476;28;20025;-69
2023/09/10 12:09:44;;;;;;;6.25;5.00;;;32.50;42.00;;;;;;5053796;28;20028;-69
2023/09/10 12:12:16;;;;;;;13.05;5.53;;;32.40;41.60;;;;;;5053438;28;20025;-69
2023/09/10 12:14:41;;;;;;;7.45;5.32;;;32.10;41.70;;;;;;5053740;28;20056;-68
2023/09/10 12:17:07;;;;;;;8.15;4.80;;;31.90;42.00;;;;;;5053715;28;20374;-69
2023/09/10 12:19:34;;;;;;;8.07;5.68;;;31.80;42.10;;;;;;5053272;28;20051;-68
2023/09/10 12:22:03;;;;;;;6.25;5.00;;;31.70;41.90;;;;;;5053241;28;20024;-69
2023/09/10 12:24:29;;;;;;;9.23;4.80;;;31.60;42.30;;;;;;5053034;28;20017;-69
2023/09/10 12:26:54;;;;;;;5.75;5.15;;;31.40;41.90;;;;;;5035526;28;20384;-69
2023/09/10 12:29:20;;;;;;;5.78;5.13;;;31.10;42.30;;;;;;5052354;28;20029;-69
2023/09/10 12:31:52;;;;;;;8.18;5.28;;;30.80;42.50;;;;;;5052925;28;20025;-69
2023/09/10 12:34:19;;;;;;;6.20;5.13;;;30.70;42.80;;;;;;5043640;28;20053;-69
2023/09/10 12:36:46;;;;;;;5.45;4.65;;;30.90;42.90;;;;;;5015673;28;20036;-69
2023/09/10 12:39:22;;;;;;;7.03;5.28;;;30.70;43.00;;;;;;5033036;28;20069;-70
2023/09/10 12:41:52;;;;;;;8.32;4.93;;;30.60;43.70;;;;;;5033317;28;20021;-70